sensor_id;sensor_type;location;lat;lon;timestamp;P1;durP1;ratioP1;P2;durP2;ratioP2
77968;SDS011;67161;0.000;0.000;2023-03-29T00:01:18;25.67;;;15.90;;
77968;SDS011;67161;0.000;0.000;2023-03-29T00:03:45;127.15;;;62.60;;
77968;SDS011;67161;0.000;0.000;2023-03-29T00:06:11;206.95;;;81.65;;
77968;SDS011;67161;0.000;0.000;2023-03-29T00:08:45;138.77;;;68.15;;
77968;SDS011;67161;0.000;0.000;2023-03-29T00:11:14;239.50;;;95.15;;
77968;SDS011;67161;0.000;0.000;2023-03-29T00:13:41;307.15;;;109.05;;
77968;SDS011;67161;0.000;0.000;2023-03-29T00:16:07;294.88;;;106.88;;
77968;SDS011;67161;0.000;0.000;2023-03-29T00:18:33;350.80;;;117.78;;
77968;SDS011;67161;0.000;0.000;2023-03-29T00:20:59;373.70;;;122.60;;
77968;SDS011;67161;0.000;0.000;2023-03-29T00:23:25;545.67;;;162.43;;
77968;SDS011;67161;0.000;0.000;2023-03-29T00:25:54;744.47;;;224.75;;
77968;SDS011;67161;0.000;0.000;2023-03-29T00:28:20;893.10;;;268.15;;
77968;SDS011;67161;0.000;0.000;2023-03-29T00:30:46;486.75;;;149.95;;
77968;SDS011;67161;0.000;0.000;2023-03-29T00:33:14;277.30;;;103.10;;
77968;SDS011;67161;0.000;0.000;2023-03-29T00:35:40;302.88;;;108.60;;
77968;SDS011;67161;0.000;0.000;2023-03-29T00:38:06;304.02;;;108.40;;
77968;SDS011;67161;0.000;0.000;2023-03-29T00:40:32;404.98;;;127.47;;
77968;SDS011;67161;0.000;0.000;2023-03-29T00:42:59;429.73;;;133.38;;
77968;SDS011;67161;0.000;0.000;2023-03-29T00:45:25;509.23;;;153.73;;
77968;SDS011;67161;0.000;0.000;2023-03-29T00:47:57;465.80;;;141.60;;
77968;SDS011;67161;0.000;0.000;2023-03-29T00:52:55;527.83;;;158.32;;
77968;SDS011;67161;0.000;0.000;2023-03-29T00:55:50;518.80;;;154.60;;
77968;SDS011;67161;0.000;0.000;2023-03-29T00:59:05;541.70;;;161.85;;
77968;SDS011;67161;0.000;0.000;2023-03-29T01:01:16;742.22;;;225.82;;
77968;SDS011;67161;0.000;0.000;2023-03-29T01:04:00;889.50;;;271.63;;
77968;SDS011;67161;0.000;0.000;2023-03-29T01:06:42;948.22;;;288.77;;
77968;SDS011;67161;0.000;0.000;2023-03-29T01:11:42;913.25;;;277.00;;
77968;SDS011;67161;0.000;0.000;2023-03-29T01:14:20;702.58;;;212.52;;
77968;SDS011;67161;0.000;0.000;2023-03-29T01:16:53;746.95;;;225.88;;
77968;SDS011;67161;0.000;0.000;2023-03-29T01:19:19;726.78;;;218.73;;
77968;SDS011;67161;0.000;0.000;2023-03-29T01:25:00;792.45;;;240.63;;
77968;SDS011;67161;0.000;0.000;2023-03-29T01:27:49;842.78;;;255.48;;
77968;SDS011;67161;0.000;0.000;2023-03-29T01:30:27;822.80;;;249.50;;
77968;SDS011;67161;0.000;0.000;2023-03-29T01:35:38;1173.00;;;349.50;;
77968;SDS011;67161;0.000;0.000;2023-03-29T01:38:11;1106.65;;;330.15;;
77968;SDS011;67161;0.000;0.000;2023-03-29T01:40:44;1070.15;;;317.90;;
77968;SDS011;67161;0.000;0.000;2023-03-29T01:46:03;1134.47;;;334.77;;
77968;SDS011;67161;0.000;0.000;2023-03-29T01:48:36;1168.57;;;343.20;;
77968;SDS011;67161;0.000;0.000;2023-03-29T01:54:30;1091.38;;;322.95;;
77968;SDS011;67161;0.000;0.000;2023-03-29T01:57:01;1079.93;;;320.27;;
77968;SDS011;67161;0.000;0.000;2023-03-29T01:59:30;923.90;;;278.60;;
77968;SDS011;67161;0.000;0.000;2023-03-29T02:02:00;878.30;;;265.73;;
77968;SDS011;67161;0.000;0.000;2023-03-29T02:04:33;1033.20;;;313.55;;
77968;SDS011;67161;0.000;0.000;2023-03-29T02:07:02;916.13;;;290.45;;
77968;SDS011;67161;0.000;0.000;2023-03-29T02:09:31;820.50;;;254.10;;
77968;SDS011;67161;0.000;0.000;2023-03-29T02:12:00;839.17;;;270.05;;
77968;SDS011;67161;0.000;0.000;2023-03-29T02:14:28;918.05;;;284.15;;
77968;SDS011;67161;0.000;0.000;2023-03-29T02:16:54;814.75;;;252.82;;
77968;SDS011;67161;0.000;0.000;2023-03-29T02:19:20;716.30;;;220.48;;
77968;SDS011;67161;0.000;0.000;2023-03-29T02:21:50;770.88;;;237.18;;
77968;SDS011;67161;0.000;0.000;2023-03-29T02:24:22;1414.50;;;418.90;;
77968;SDS011;67161;0.000;0.000;2023-03-29T02:26:49;1062.95;;;319.25;;
77968;SDS011;67161;0.000;0.000;2023-03-29T02:29:15;894.15;;;275.45;;
77968;SDS011;67161;0.000;0.000;2023-03-29T02:31:41;22.88;;;10.40;;
77968;SDS011;67161;0.000;0.000;2023-03-29T02:36:58;603.45;;;186.65;;
77968;SDS011;67161;0.000;0.000;2023-03-29T02:39:27;510.27;;;155.10;;
77968;SDS011;67161;0.000;0.000;2023-03-29T02:41:56;535.60;;;162.02;;
77968;SDS011;67161;0.000;0.000;2023-03-29T02:44:26;504.33;;;153.38;;
77968;SDS011;67161;0.000;0.000;2023-03-29T02:47:09;570.13;;;171.40;;
77968;SDS011;67161;0.000;0.000;2023-03-29T02:49:43;607.58;;;183.57;;
77968;SDS011;67161;0.000;0.000;2023-03-29T02:52:10;678.40;;;206.68;;
77968;SDS011;67161;0.000;0.000;2023-03-29T02:54:39;902.75;;;280.05;;
77968;SDS011;67161;0.000;0.000;2023-03-29T02:57:09;1098.53;;;336.13;;
77968;SDS011;67161;0.000;0.000;2023-03-29T02:59:35;1196.50;;;363.83;;
77968;SDS011;67161;0.000;0.000;2023-03-29T03:02:02;1200.03;;;360.40;;
77968;SDS011;67161;0.000;0.000;2023-03-29T03:04:29;1200.18;;;357.92;;
77968;SDS011;67161;0.000;0.000;2023-03-29T03:06:55;1262.05;;;373.92;;
77968;SDS011;67161;0.000;0.000;2023-03-29T03:09:21;1302.20;;;384.10;;
77968;SDS011;67161;0.000;0.000;2023-03-29T03:11:47;1324.45;;;391.60;;
77968;SDS011;67161;0.000;0.000;2023-03-29T03:14:13;1492.90;;;439.88;;
77968;SDS011;67161;0.000;0.000;2023-03-29T03:16:38;1464.07;;;432.20;;
77968;SDS011;67161;0.000;0.000;2023-03-29T03:19:04;1162.45;;;350.20;;
77968;SDS011;67161;0.000;0.000;2023-03-29T03:21:30;1158.82;;;347.77;;
77968;SDS011;67161;0.000;0.000;2023-03-29T03:23:56;1145.82;;;345.27;;
77968;SDS011;67161;0.000;0.000;2023-03-29T03:26:22;1302.28;;;385.75;;
77968;SDS011;67161;0.000;0.000;2023-03-29T03:28:49;1248.30;;;369.00;;
77968;SDS011;67161;0.000;0.000;2023-03-29T03:31:15;1249.15;;;365.33;;
77968;SDS011;67161;0.000;0.000;2023-03-29T03:33:41;1277.55;;;372.63;;
77968;SDS011;67161;0.000;0.000;2023-03-29T03:36:07;1293.28;;;376.60;;
77968;SDS011;67161;0.000;0.000;2023-03-29T03:38:34;1316.03;;;386.33;;
77968;SDS011;67161;0.000;0.000;2023-03-29T03:41:01;1284.72;;;375.42;;
77968;SDS011;67161;0.000;0.000;2023-03-29T03:43:27;1287.78;;;378.23;;
77968;SDS011;67161;0.000;0.000;2023-03-29T03:45:53;1310.05;;;382.23;;
77968;SDS011;67161;0.000;0.000;2023-03-29T03:48:20;1314.53;;;382.60;;
77968;SDS011;67161;0.000;0.000;2023-03-29T03:50:50;1329.28;;;390.05;;
77968;SDS011;67161;0.000;0.000;2023-03-29T03:53:18;1304.80;;;380.77;;
77968;SDS011;67161;0.000;0.000;2023-03-29T03:55:47;1428.07;;;413.10;;
77968;SDS011;67161;0.000;0.000;2023-03-29T03:58:18;1447.28;;;423.50;;
77968;SDS011;67161;0.000;0.000;2023-03-29T04:00:46;1366.63;;;397.00;;
77968;SDS011;67161;0.000;0.000;2023-03-29T04:03:14;1396.18;;;405.48;;
77968;SDS011;67161;0.000;0.000;2023-03-29T04:05:41;1367.95;;;395.08;;
77968;SDS011;67161;0.000;0.000;2023-03-29T04:08:08;1376.88;;;399.50;;
77968;SDS011;67161;0.000;0.000;2023-03-29T04:10:35;1357.05;;;395.73;;
77968;SDS011;67161;0.000;0.000;2023-03-29T04:13:01;1375.35;;;400.20;;
77968;SDS011;67161;0.000;0.000;2023-03-29T04:15:27;1369.97;;;396.95;;
77968;SDS011;67161;0.000;0.000;2023-03-29T04:17:54;1340.55;;;389.67;;
77968;SDS011;67161;0.000;0.000;2023-03-29T04:20:21;1380.85;;;400.40;;
77968;SDS011;67161;0.000;0.000;2023-03-29T04:22:48;1340.18;;;390.15;;
77968;SDS011;67161;0.000;0.000;2023-03-29T04:25:14;1327.38;;;383.65;;
77968;SDS011;67161;0.000;0.000;2023-03-29T04:27:40;1321.40;;;382.25;;
77968;SDS011;67161;0.000;0.000;2023-03-29T04:30:06;1388.60;;;401.35;;
77968;SDS011;67161;0.000;0.000;2023-03-29T04:32:33;1300.75;;;378.02;;
77968;SDS011;67161;0.000;0.000;2023-03-29T04:34:59;1390.20;;;403.20;;
77968;SDS011;67161;0.000;0.000;2023-03-29T04:37:25;1438.38;;;416.60;;
77968;SDS011;67161;0.000;0.000;2023-03-29T04:39:52;1305.35;;;379.00;;
77968;SDS011;67161;0.000;0.000;2023-03-29T04:42:18;1427.65;;;409.75;;
77968;SDS011;67161;0.000;0.000;2023-03-29T04:44:44;1413.82;;;407.77;;
77968;SDS011;67161;0.000;0.000;2023-03-29T04:47:10;1414.22;;;409.65;;
77968;SDS011;67161;0.000;0.000;2023-03-29T04:49:37;1330.75;;;386.15;;
77968;SDS011;67161;0.000;0.000;2023-03-29T04:52:03;1371.32;;;400.17;;
77968;SDS011;67161;0.000;0.000;2023-03-29T04:54:29;1339.07;;;387.25;;
77968;SDS011;67161;0.000;0.000;2023-03-29T04:56:55;1517.07;;;434.90;;
77968;SDS011;67161;0.000;0.000;2023-03-29T04:59:21;1352.10;;;390.23;;
77968;SDS011;67161;0.000;0.000;2023-03-29T05:04:12;1294.03;;;374.20;;
77968;SDS011;67161;0.000;0.000;2023-03-29T05:06:38;1251.75;;;362.15;;
77968;SDS011;67161;0.000;0.000;2023-03-29T05:09:04;1227.70;;;356.15;;
77968;SDS011;67161;0.000;0.000;2023-03-29T05:11:30;1217.65;;;353.02;;
77968;SDS011;67161;0.000;0.000;2023-03-29T05:13:56;1186.15;;;346.58;;
77968;SDS011;67161;0.000;0.000;2023-03-29T05:16:26;1161.28;;;338.70;;
77968;SDS011;67161;0.000;0.000;2023-03-29T05:18:53;1149.95;;;334.88;;
77968;SDS011;67161;0.000;0.000;2023-03-29T05:21:20;1133.57;;;333.05;;
77968;SDS011;67161;0.000;0.000;2023-03-29T05:23:46;1118.40;;;328.58;;
77968;SDS011;67161;0.000;0.000;2023-03-29T05:26:11;1147.72;;;335.13;;
77968;SDS011;67161;0.000;0.000;2023-03-29T05:28:39;1155.60;;;337.30;;
77968;SDS011;67161;0.000;0.000;2023-03-29T05:31:05;1152.18;;;336.33;;
77968;SDS011;67161;0.000;0.000;2023-03-29T05:33:31;1162.30;;;336.40;;
77968;SDS011;67161;0.000;0.000;2023-03-29T05:36:02;1216.70;;;351.13;;
77968;SDS011;67161;0.000;0.000;2023-03-29T05:38:29;1256.15;;;359.52;;
77968;SDS011;67161;0.000;0.000;2023-03-29T05:40:56;1280.65;;;365.63;;
77968;SDS011;67161;0.000;0.000;2023-03-29T05:43:22;1277.55;;;365.42;;
77968;SDS011;67161;0.000;0.000;2023-03-29T05:45:48;1271.78;;;362.73;;
77968;SDS011;67161;0.000;0.000;2023-03-29T05:48:16;1270.00;;;362.88;;
77968;SDS011;67161;0.000;0.000;2023-03-29T05:50:45;1297.60;;;369.45;;
77968;SDS011;67161;0.000;0.000;2023-03-29T05:53:12;1375.63;;;390.75;;
77968;SDS011;67161;0.000;0.000;2023-03-29T05:55:38;1261.93;;;362.52;;
77968;SDS011;67161;0.000;0.000;2023-03-29T05:58:03;1256.05;;;361.33;;
77968;SDS011;67161;0.000;0.000;2023-03-29T06:00:29;1299.20;;;369.23;;
77968;SDS011;67161;0.000;0.000;2023-03-29T06:02:56;1273.22;;;365.35;;
77968;SDS011;67161;0.000;0.000;2023-03-29T06:05:22;1285.90;;;366.40;;
77968;SDS011;67161;0.000;0.000;2023-03-29T06:07:48;1266.97;;;363.00;;
77968;SDS011;67161;0.000;0.000;2023-03-29T06:10:14;1272.70;;;364.95;;
77968;SDS011;67161;0.000;0.000;2023-03-29T06:12:40;1249.50;;;357.20;;
77968;SDS011;67161;0.000;0.000;2023-03-29T06:15:06;1303.35;;;370.77;;
77968;SDS011;67161;0.000;0.000;2023-03-29T06:17:33;1346.90;;;382.75;;
77968;SDS011;67161;0.000;0.000;2023-03-29T06:19:59;1300.30;;;369.85;;
77968;SDS011;67161;0.000;0.000;2023-03-29T06:22:25;1286.72;;;367.00;;
77968;SDS011;67161;0.000;0.000;2023-03-29T06:24:51;1352.38;;;379.55;;
77968;SDS011;67161;0.000;0.000;2023-03-29T06:27:17;1401.13;;;391.60;;
77968;SDS011;67161;0.000;0.000;2023-03-29T06:29:43;1416.35;;;397.67;;
77968;SDS011;67161;0.000;0.000;2023-03-29T06:32:09;1395.57;;;391.92;;
77968;SDS011;67161;0.000;0.000;2023-03-29T06:34:35;1584.20;;;443.77;;
77968;SDS011;67161;0.000;0.000;2023-03-29T06:37:01;1503.85;;;423.30;;
77968;SDS011;67161;0.000;0.000;2023-03-29T06:39:27;1559.90;;;443.23;;
77968;SDS011;67161;0.000;0.000;2023-03-29T06:41:54;1418.53;;;401.63;;
77968;SDS011;67161;0.000;0.000;2023-03-29T06:44:20;1362.65;;;386.08;;
77968;SDS011;67161;0.000;0.000;2023-03-29T06:46:45;1583.43;;;447.30;;
77968;SDS011;67161;0.000;0.000;2023-03-29T06:49:11;1340.63;;;379.52;;
77968;SDS011;67161;0.000;0.000;2023-03-29T06:51:37;1346.10;;;383.13;;
77968;SDS011;67161;0.000;0.000;2023-03-29T06:54:04;1387.50;;;393.73;;
77968;SDS011;67161;0.000;0.000;2023-03-29T06:56:29;1338.20;;;379.38;;
77968;SDS011;67161;0.000;0.000;2023-03-29T06:58:56;1396.65;;;392.65;;
77968;SDS011;67161;0.000;0.000;2023-03-29T07:01:21;1350.32;;;382.13;;
77968;SDS011;67161;0.000;0.000;2023-03-29T07:03:47;1387.85;;;392.85;;
77968;SDS011;67161;0.000;0.000;2023-03-29T07:06:13;1425.85;;;400.50;;
77968;SDS011;67161;0.000;0.000;2023-03-29T07:08:41;1466.80;;;412.75;;
77968;SDS011;67161;0.000;0.000;2023-03-29T07:11:11;1349.68;;;379.92;;
77968;SDS011;67161;0.000;0.000;2023-03-29T07:13:38;1350.13;;;381.65;;
77968;SDS011;67161;0.000;0.000;2023-03-29T07:16:11;1366.05;;;386.15;;
77968;SDS011;67161;0.000;0.000;2023-03-29T07:18:40;1354.85;;;380.45;;
77968;SDS011;67161;0.000;0.000;2023-03-29T07:21:08;1282.78;;;365.27;;
77968;SDS011;67161;0.000;0.000;2023-03-29T07:23:35;1282.03;;;363.60;;
77968;SDS011;67161;0.000;0.000;2023-03-29T07:26:01;1279.38;;;364.25;;
77968;SDS011;67161;0.000;0.000;2023-03-29T07:28:27;1304.00;;;368.77;;
77968;SDS011;67161;0.000;0.000;2023-03-29T07:31:00;1397.82;;;391.55;;
77968;SDS011;67161;0.000;0.000;2023-03-29T07:33:28;1317.78;;;373.73;;
77968;SDS011;67161;0.000;0.000;2023-03-29T07:35:54;1291.97;;;366.50;;
77968;SDS011;67161;0.000;0.000;2023-03-29T07:38:19;1228.70;;;353.73;;
77968;SDS011;67161;0.000;0.000;2023-03-29T07:40:45;835.92;;;252.20;;
77968;SDS011;67161;0.000;0.000;2023-03-29T07:43:11;771.15;;;229.10;;
77968;SDS011;67161;0.000;0.000;2023-03-29T07:45:36;924.63;;;276.90;;
77968;SDS011;67161;0.000;0.000;2023-03-29T07:48:04;789.58;;;236.80;;
77968;SDS011;67161;0.000;0.000;2023-03-29T07:50:30;935.60;;;279.48;;
77968;SDS011;67161;0.000;0.000;2023-03-29T07:52:56;888.45;;;265.00;;
77968;SDS011;67161;0.000;0.000;2023-03-29T07:55:22;1030.22;;;303.10;;
77968;SDS011;67161;0.000;0.000;2023-03-29T07:57:48;1091.93;;;320.52;;
77968;SDS011;67161;0.000;0.000;2023-03-29T08:00:14;1108.30;;;323.23;;
77968;SDS011;67161;0.000;0.000;2023-03-29T08:02:41;962.88;;;286.25;;
77968;SDS011;67161;0.000;0.000;2023-03-29T08:05:08;1119.80;;;324.50;;
77968;SDS011;67161;0.000;0.000;2023-03-29T08:07:34;1077.30;;;315.73;;
77968;SDS011;67161;0.000;0.000;2023-03-29T08:09:59;1142.75;;;330.73;;
77968;SDS011;67161;0.000;0.000;2023-03-29T08:12:25;1219.43;;;348.73;;
77968;SDS011;67161;0.000;0.000;2023-03-29T08:14:51;1238.28;;;355.20;;
77968;SDS011;67161;0.000;0.000;2023-03-29T08:17:16;1285.82;;;368.95;;
77968;SDS011;67161;0.000;0.000;2023-03-29T08:19:42;1338.47;;;381.35;;
77968;SDS011;67161;0.000;0.000;2023-03-29T08:22:07;1354.28;;;384.95;;
77968;SDS011;67161;0.000;0.000;2023-03-29T08:24:33;1379.30;;;390.38;;
77968;SDS011;67161;0.000;0.000;2023-03-29T08:26:59;1397.90;;;395.73;;
77968;SDS011;67161;0.000;0.000;2023-03-29T08:29:24;1365.35;;;386.67;;
77968;SDS011;67161;0.000;0.000;2023-03-29T08:31:51;1341.75;;;381.20;;
77968;SDS011;67161;0.000;0.000;2023-03-29T08:34:16;1340.68;;;381.65;;
77968;SDS011;67161;0.000;0.000;2023-03-29T08:36:43;1341.25;;;382.92;;
77968;SDS011;67161;0.000;0.000;2023-03-29T08:39:08;1411.53;;;399.73;;
77968;SDS011;67161;0.000;0.000;2023-03-29T08:49:39;1551.90;;;441.73;;
77968;SDS011;67161;0.000;0.000;2023-03-29T08:55:02;1712.78;;;485.17;;
77968;SDS011;67161;0.000;0.000;2023-03-29T08:57:41;1852.50;;;519.58;;
77968;SDS011;67161;0.000;0.000;2023-03-29T09:00:15;1770.00;;;503.58;;
77968;SDS011;67161;0.000;0.000;2023-03-29T09:02:45;1783.15;;;508.00;;
77968;SDS011;67161;0.000;0.000;2023-03-29T09:05:17;1698.80;;;485.67;;
77968;SDS011;67161;0.000;0.000;2023-03-29T09:07:51;1633.97;;;466.20;;
77968;SDS011;67161;0.000;0.000;2023-03-29T09:10:17;1534.60;;;440.00;;
77968;SDS011;67161;0.000;0.000;2023-03-29T09:12:53;1527.47;;;433.25;;
77968;SDS011;67161;0.000;0.000;2023-03-29T09:15:48;1577.57;;;448.65;;
77968;SDS011;67161;0.000;0.000;2023-03-29T09:18:38;1612.68;;;461.27;;
77968;SDS011;67161;0.000;0.000;2023-03-29T09:21:38;1632.82;;;463.80;;
77968;SDS011;67161;0.000;0.000;2023-03-29T09:24:20;1608.97;;;459.23;;
77968;SDS011;67161;0.000;0.000;2023-03-29T09:32:36;1298.93;;;367.48;;
77968;SDS011;67161;0.000;0.000;2023-03-29T09:35:20;1449.13;;;405.10;;
77968;SDS011;67161;0.000;0.000;2023-03-29T09:40:25;1406.07;;;397.58;;
77968;SDS011;67161;0.000;0.000;2023-03-29T09:45:24;1352.65;;;385.95;;
77968;SDS011;67161;0.000;0.000;2023-03-29T09:47:54;1385.50;;;394.40;;
77968;SDS011;67161;0.000;0.000;2023-03-29T09:52:52;1446.30;;;410.50;;
77968;SDS011;67161;0.000;0.000;2023-03-29T09:55:19;1455.03;;;413.52;;
77968;SDS011;67161;0.000;0.000;2023-03-29T09:57:49;1218.78;;;346.60;;
77968;SDS011;67161;0.000;0.000;2023-03-29T10:00:15;1393.35;;;393.58;;
77968;SDS011;67161;0.000;0.000;2023-03-29T10:02:48;1417.32;;;395.02;;
77968;SDS011;67161;0.000;0.000;2023-03-29T10:05:16;1323.72;;;373.05;;
77968;SDS011;67161;0.000;0.000;2023-03-29T10:07:52;1433.22;;;402.45;;
77968;SDS011;67161;0.000;0.000;2023-03-29T10:10:32;1318.13;;;374.35;;
77968;SDS011;67161;0.000;0.000;2023-03-29T10:13:00;1389.40;;;392.80;;
77968;SDS011;67161;0.000;0.000;2023-03-29T10:15:30;1405.57;;;400.15;;
77968;SDS011;67161;0.000;0.000;2023-03-29T10:17:57;1398.65;;;397.02;;
77968;SDS011;67161;0.000;0.000;2023-03-29T10:20:25;1433.88;;;407.30;;
77968;SDS011;67161;0.000;0.000;2023-03-29T10:22:55;1385.82;;;393.52;;
77968;SDS011;67161;0.000;0.000;2023-03-29T10:25:29;1426.03;;;404.55;;
77968;SDS011;67161;0.000;0.000;2023-03-29T10:28:10;1462.93;;;414.25;;
77968;SDS011;67161;0.000;0.000;2023-03-29T10:30:40;1415.63;;;400.23;;
77968;SDS011;67161;0.000;0.000;2023-03-29T10:33:12;1459.00;;;413.10;;
77968;SDS011;67161;0.000;0.000;2023-03-29T10:35:41;1420.85;;;401.13;;
77968;SDS011;67161;0.000;0.000;2023-03-29T10:38:15;1478.43;;;417.20;;
77968;SDS011;67161;0.000;0.000;2023-03-29T10:40:44;1465.47;;;414.30;;
77968;SDS011;67161;0.000;0.000;2023-03-29T10:43:27;1481.77;;;420.33;;
77968;SDS011;67161;0.000;0.000;2023-03-29T10:46:10;1435.97;;;410.65;;
77968;SDS011;67161;0.000;0.000;2023-03-29T10:48:47;1446.93;;;413.90;;
77968;SDS011;67161;0.000;0.000;2023-03-29T10:51:22;1506.32;;;426.83;;
77968;SDS011;67161;0.000;0.000;2023-03-29T10:53:48;1450.45;;;413.13;;
77968;SDS011;67161;0.000;0.000;2023-03-29T11:09:32;1580.95;;;452.35;;
77968;SDS011;67161;0.000;0.000;2023-03-29T11:12:24;1549.72;;;443.08;;
77968;SDS011;67161;0.000;0.000;2023-03-29T11:20:27;1653.68;;;473.58;;
77968;SDS011;67161;0.000;0.000;2023-03-29T11:23:37;1669.28;;;477.45;;
77968;SDS011;67161;0.000;0.000;2023-03-29T11:28:51;1681.50;;;476.30;;
77968;SDS011;67161;0.000;0.000;2023-03-29T11:37:22;1756.18;;;496.70;;
77968;SDS011;67161;0.000;0.000;2023-03-29T11:42:42;1833.07;;;515.28;;
77968;SDS011;67161;0.000;0.000;2023-03-29T11:45:12;1912.88;;;534.92;;
77968;SDS011;67161;0.000;0.000;2023-03-29T11:47:45;1819.05;;;512.38;;
77968;SDS011;67161;0.000;0.000;2023-03-29T11:50:19;1829.47;;;514.72;;
77968;SDS011;67161;0.000;0.000;2023-03-29T11:53:03;1871.63;;;523.33;;
77968;SDS011;67161;0.000;0.000;2023-03-29T11:55:36;1804.70;;;506.65;;
77968;SDS011;67161;0.000;0.000;2023-03-29T11:58:09;1762.78;;;493.88;;
77968;SDS011;67161;0.000;0.000;2023-03-29T12:00:43;1764.18;;;496.50;;
77968;SDS011;67161;0.000;0.000;2023-03-29T12:06:07;1608.63;;;454.02;;
77968;SDS011;67161;0.000;0.000;2023-03-29T12:08:43;1498.97;;;417.70;;
77968;SDS011;67161;0.000;0.000;2023-03-29T12:11:17;1467.88;;;408.95;;
77968;SDS011;67161;0.000;0.000;2023-03-29T12:16:29;1632.53;;;458.80;;
77968;SDS011;67161;0.000;0.000;2023-03-29T12:19:03;1855.93;;;533.20;;
77968;SDS011;67161;0.000;0.000;2023-03-29T12:21:36;18.42;;;3.30;;
77968;SDS011;67161;0.000;0.000;2023-03-29T12:24:20;8.95;;;2.83;;
77968;SDS011;67161;0.000;0.000;2023-03-29T12:26:54;7.78;;;2.97;;
77968;SDS011;67161;0.000;0.000;2023-03-29T12:29:27;12.70;;;3.17;;
77968;SDS011;67161;0.000;0.000;2023-03-29T12:41:01;12.27;;;3.72;;
77968;SDS011;67161;0.000;0.000;2023-03-29T12:43:36;11.15;;;4.65;;
77968;SDS011;67161;0.000;0.000;2023-03-29T12:46:13;14.75;;;5.50;;
77968;SDS011;67161;0.000;0.000;2023-03-29T12:48:42;20.17;;;5.40;;
77968;SDS011;67161;0.000;0.000;2023-03-29T12:51:11;20.52;;;5.88;;
77968;SDS011;67161;0.000;0.000;2023-03-29T12:53:44;29.77;;;4.45;;
77968;SDS011;67161;0.000;0.000;2023-03-29T12:56:15;45.85;;;9.70;;
77968;SDS011;67161;0.000;0.000;2023-03-29T13:01:36;31.40;;;8.32;;
77968;SDS011;67161;0.000;0.000;2023-03-29T13:04:18;31.42;;;9.07;;
77968;SDS011;67161;0.000;0.000;2023-03-29T13:09:26;57.05;;;20.05;;
77968;SDS011;67161;0.000;0.000;2023-03-29T13:11:56;47.70;;;15.88;;
77968;SDS011;67161;0.000;0.000;2023-03-29T13:14:45;40.90;;;12.60;;
77968;SDS011;67161;0.000;0.000;2023-03-29T13:22:46;88.43;;;26.52;;
77968;SDS011;67161;0.000;0.000;2023-03-29T13:36:04;66.60;;;21.38;;
77968;SDS011;67161;0.000;0.000;2023-03-29T13:38:41;65.82;;;22.58;;
77968;SDS011;67161;0.000;0.000;2023-03-29T13:41:51;58.92;;;17.02;;
77968;SDS011;67161;0.000;0.000;2023-03-29T13:44:04;64.25;;;20.52;;
77968;SDS011;67161;0.000;0.000;2023-03-29T13:47:00;54.05;;;18.45;;
77968;SDS011;67161;0.000;0.000;2023-03-29T13:49:41;49.72;;;17.42;;
77968;SDS011;67161;0.000;0.000;2023-03-29T13:52:12;49.60;;;15.90;;
77968;SDS011;67161;0.000;0.000;2023-03-29T13:54:44;48.63;;;14.90;;
77968;SDS011;67161;0.000;0.000;2023-03-29T14:02:42;45.50;;;12.40;;
77968;SDS011;67161;0.000;0.000;2023-03-29T14:05:36;41.22;;;12.55;;
77968;SDS011;67161;0.000;0.000;2023-03-29T14:10:48;34.47;;;10.25;;
77968;SDS011;67161;0.000;0.000;2023-03-29T14:13:16;30.95;;;10.60;;
77968;SDS011;67161;0.000;0.000;2023-03-29T14:15:46;43.88;;;12.82;;
77968;SDS011;67161;0.000;0.000;2023-03-29T14:18:40;48.78;;;15.80;;
77968;SDS011;67161;0.000;0.000;2023-03-29T14:21:10;81.50;;;26.38;;
77968;SDS011;67161;0.000;0.000;2023-03-29T14:23:37;39.78;;;14.60;;
77968;SDS011;67161;0.000;0.000;2023-03-29T14:28:34;51.45;;;15.55;;
77968;SDS011;67161;0.000;0.000;2023-03-29T14:31:00;40.45;;;15.80;;
77968;SDS011;67161;0.000;0.000;2023-03-29T14:33:27;44.42;;;16.02;;
77968;SDS011;67161;0.000;0.000;2023-03-29T14:35:57;40.95;;;14.52;;
77968;SDS011;67161;0.000;0.000;2023-03-29T14:38:24;46.67;;;19.98;;
77968;SDS011;67161;0.000;0.000;2023-03-29T14:40:51;50.65;;;17.95;;
77968;SDS011;67161;0.000;0.000;2023-03-29T14:43:19;45.75;;;14.75;;
77968;SDS011;67161;0.000;0.000;2023-03-29T14:45:46;54.78;;;18.10;;
77968;SDS011;67161;0.000;0.000;2023-03-29T14:48:13;64.03;;;21.08;;
77968;SDS011;67161;0.000;0.000;2023-03-29T14:50:39;59.13;;;20.70;;
77968;SDS011;67161;0.000;0.000;2023-03-29T14:53:06;78.45;;;29.23;;
77968;SDS011;67161;0.000;0.000;2023-03-29T14:55:32;91.63;;;31.35;;
77968;SDS011;67161;0.000;0.000;2023-03-29T14:58:00;85.15;;;31.70;;
77968;SDS011;67161;0.000;0.000;2023-03-29T15:00:28;60.38;;;24.42;;
77968;SDS011;67161;0.000;0.000;2023-03-29T15:03:11;79.43;;;21.55;;
77968;SDS011;67161;0.000;0.000;2023-03-29T15:05:39;46.30;;;16.83;;
77968;SDS011;67161;0.000;0.000;2023-03-29T15:08:12;58.38;;;19.50;;
77968;SDS011;67161;0.000;0.000;2023-03-29T15:10:41;55.28;;;18.73;;
77968;SDS011;67161;0.000;0.000;2023-03-29T15:13:10;53.20;;;17.83;;
77968;SDS011;67161;0.000;0.000;2023-03-29T15:15:42;48.80;;;17.08;;
77968;SDS011;67161;0.000;0.000;2023-03-29T15:18:08;41.35;;;15.63;;
77968;SDS011;67161;0.000;0.000;2023-03-29T15:20:38;40.88;;;14.65;;
77968;SDS011;67161;0.000;0.000;2023-03-29T15:25:37;31.38;;;11.65;;
77968;SDS011;67161;0.000;0.000;2023-03-29T15:28:21;41.00;;;11.27;;
77968;SDS011;67161;0.000;0.000;2023-03-29T15:30:55;28.15;;;9.85;;
77968;SDS011;67161;0.000;0.000;2023-03-29T15:33:30;29.05;;;9.27;;
77968;SDS011;67161;0.000;0.000;2023-03-29T15:35:58;26.73;;;8.68;;
77968;SDS011;67161;0.000;0.000;2023-03-29T15:38:26;28.20;;;8.60;;
77968;SDS011;67161;0.000;0.000;2023-03-29T15:40:51;20.95;;;7.63;;
77968;SDS011;67161;0.000;0.000;2023-03-29T15:43:17;16.60;;;6.70;;
77968;SDS011;67161;0.000;0.000;2023-03-29T15:45:45;15.35;;;7.13;;
77968;SDS011;67161;0.000;0.000;2023-03-29T15:48:15;15.43;;;6.70;;
77968;SDS011;67161;0.000;0.000;2023-03-29T15:50:46;15.52;;;6.43;;
77968;SDS011;67161;0.000;0.000;2023-03-29T15:53:12;15.25;;;6.70;;
77968;SDS011;67161;0.000;0.000;2023-03-29T15:55:38;16.45;;;5.75;;
77968;SDS011;67161;0.000;0.000;2023-03-29T15:58:07;14.25;;;5.82;;
77968;SDS011;67161;0.000;0.000;2023-03-29T16:00:37;14.60;;;5.88;;
77968;SDS011;67161;0.000;0.000;2023-03-29T16:03:07;15.77;;;6.07;;
77968;SDS011;67161;0.000;0.000;2023-03-29T16:05:39;12.05;;;5.25;;
77968;SDS011;67161;0.000;0.000;2023-03-29T16:08:05;12.52;;;5.70;;
77968;SDS011;67161;0.000;0.000;2023-03-29T16:10:33;14.90;;;5.32;;
77968;SDS011;67161;0.000;0.000;2023-03-29T16:12:58;12.23;;;5.18;;
77968;SDS011;67161;0.000;0.000;2023-03-29T16:15:24;13.55;;;5.13;;
77968;SDS011;67161;0.000;0.000;2023-03-29T16:17:51;10.38;;;4.88;;
77968;SDS011;67161;0.000;0.000;2023-03-29T16:20:16;9.32;;;4.60;;
77968;SDS011;67161;0.000;0.000;2023-03-29T16:22:44;11.13;;;4.40;;
77968;SDS011;67161;0.000;0.000;2023-03-29T16:25:14;14.32;;;4.88;;
77968;SDS011;67161;0.000;0.000;2023-03-29T16:27:43;10.35;;;4.30;;
77968;SDS011;67161;0.000;0.000;2023-03-29T16:30:09;10.80;;;4.35;;